createdAt,value
2023-05-04T04:01:13.041Z,94.70
2023-05-04T04:03:41.102Z,95.30
2023-05-04T04:06:10.458Z,95.80
2023-05-04T04:08:38.535Z,95.80
2023-05-04T04:11:06.499Z,96.10
2023-05-04T04:13:34.280Z,97.00
2023-05-04T04:16:02.140Z,96.80
2023-05-04T04:18:31.555Z,97.10
2023-05-04T04:20:59.594Z,99.90
2023-05-04T04:23:27.430Z,97.40
2023-05-04T04:25:55.193Z,97.40
2023-05-04T04:28:23.022Z,99.90
2023-05-04T04:30:50.822Z,99.90
2023-05-04T04:33:18.604Z,99.90
2023-05-04T04:35:48.165Z,98.30
2023-05-04T04:38:16.017Z,99.90
2023-05-04T04:40:43.858Z,99.90
2023-05-04T04:43:11.952Z,98.00
2023-05-04T04:45:41.152Z,98.70
2023-05-04T04:48:09.269Z,98.80
2023-05-04T04:50:40.005Z,99.90
2023-05-04T04:53:09.789Z,98.70
2023-05-04T04:55:37.752Z,98.70
2023-05-04T04:58:05.919Z,99.90
2023-05-04T05:00:33.816Z,98.70
2023-05-04T05:03:01.937Z,98.40
2023-05-04T05:05:31.541Z,98.60
2023-05-04T05:07:59.758Z,98.70
2023-05-04T05:10:29.170Z,99.90
2023-05-04T05:12:57.065Z,98.90
2023-05-04T05:15:24.882Z,98.90
2023-05-04T05:17:52.754Z,99.90
2023-05-04T05:20:21.307Z,99.10
2023-05-04T05:22:49.173Z,99.10
2023-05-04T05:25:17.120Z,98.80
2023-05-04T05:27:46.690Z,99.90
2023-05-04T05:30:14.790Z,99.40
2023-05-04T05:32:42.917Z,99.90
2023-05-04T05:35:12.372Z,98.90
2023-05-04T05:37:40.190Z,99.90
2023-05-04T05:40:09.547Z,99.90
2023-05-04T05:42:37.340Z,99.40
2023-05-04T05:45:07.994Z,99.70
2023-05-04T05:47:36.704Z,99.70
2023-05-04T05:50:04.951Z,99.40
2023-05-04T05:52:33.069Z,99.90
2023-05-04T05:55:02.683Z,99.10
2023-05-04T05:57:30.859Z,99.90
2023-05-04T05:59:58.909Z,99.90
2023-05-04T06:02:28.300Z,99.30
2023-05-04T06:07:24.620Z,99.20
2023-05-04T06:09:53.514Z,99.90
2023-05-04T06:12:21.401Z,99.60
2023-05-04T06:14:49.375Z,99.90
2023-05-04T06:17:17.437Z,99.90
2023-05-04T06:19:49.529Z,99.90
2023-05-04T06:22:18.790Z,99.90
2023-05-04T06:24:46.751Z,99.90
2023-05-04T06:27:14.570Z,99.90
2023-05-04T06:29:42.529Z,99.90
2023-05-04T06:32:14.235Z,99.90
2023-05-04T06:34:43.030Z,98.70
2023-05-04T06:37:14.127Z,99.90
2023-05-04T06:39:43.887Z,98.20
2023-05-04T06:42:12.196Z,98.00
2023-05-04T06:44:40.114Z,97.40
2023-05-04T06:47:08.059Z,99.90
2023-05-04T06:49:36.387Z,97.80
2023-05-04T06:52:04.277Z,99.90
2023-05-04T06:54:33.531Z,99.30
2023-05-04T06:57:04.321Z,99.50
2023-05-04T06:59:32.095Z,99.90
2023-05-04T07:02:00.006Z,99.90
2023-05-04T07:04:28.111Z,98.10
2023-05-04T07:06:55.991Z,97.80
2023-05-04T07:09:23.817Z,99.90
2023-05-04T07:11:52.935Z,99.90
2023-05-04T07:14:21.786Z,96.90
2023-05-04T07:16:49.668Z,97.70
2023-05-04T07:19:17.584Z,97.80
2023-05-04T07:21:45.378Z,97.90
2023-05-04T07:24:13.202Z,98.20
2023-05-04T07:26:40.974Z,98.10
2023-05-04T07:29:11.877Z,97.30
2023-05-04T07:31:40.034Z,97.30
2023-05-04T07:34:07.823Z,96.10
2023-05-04T07:36:36.262Z,99.90
2023-05-04T07:39:04.220Z,99.90
2023-05-04T07:41:32.976Z,97.00
2023-05-04T07:44:20.235Z,98.20
2023-05-04T07:59:36.117Z,99.90
2023-05-04T08:04:52.716Z,99.90
2023-05-04T08:15:07.605Z,99.90
2023-05-04T08:17:37.314Z,99.90
2023-05-04T08:20:05.774Z,99.90
2023-05-04T08:22:34.165Z,99.90
2023-05-04T08:25:03.042Z,99.90
2023-05-04T08:27:33.771Z,99.90
2023-05-04T08:30:02.479Z,99.90
2023-05-04T08:32:33.301Z,99.90
2023-05-04T08:35:01.194Z,99.90
2023-05-04T08:37:29.092Z,99.90
2023-05-04T08:39:57.017Z,99.90
2023-05-04T08:42:29.412Z,99.90
2023-05-04T08:44:58.275Z,99.90
2023-05-04T08:49:59.119Z,99.90
2023-05-04T08:52:27.534Z,99.90
2023-05-04T08:54:56.794Z,99.90
2023-05-04T08:57:26.279Z,99.90
2023-05-04T08:59:59.230Z,99.90
2023-05-04T09:02:29.224Z,99.90
2023-05-04T09:05:00.331Z,99.90
2023-05-04T09:09:58.997Z,99.90
2023-05-04T09:12:28.068Z,99.90
2023-05-04T09:14:55.914Z,99.90
2023-05-04T09:17:26.394Z,99.90
2023-05-04T09:20:01.487Z,99.90
2023-05-04T09:22:31.262Z,99.90
2023-05-04T09:25:10.250Z,99.90
2023-05-04T09:27:38.261Z,99.90
2023-05-04T09:30:07.243Z,99.90
2023-05-04T09:32:38.398Z,99.90
2023-05-04T09:35:07.924Z,99.90
2023-05-04T09:37:44.336Z,99.90
2023-05-04T09:40:13.386Z,99.90
2023-05-04T09:42:41.376Z,99.90
2023-05-04T09:45:10.908Z,99.90
2023-05-04T09:47:39.981Z,99.90
2023-05-04T09:50:16.990Z,99.90
2023-05-04T09:52:49.192Z,99.90
2023-05-04T09:55:19.308Z,99.90
2023-05-04T09:57:48.091Z,99.90
2023-05-04T10:00:17.609Z,99.90
2023-05-04T10:02:46.587Z,99.90
2023-05-04T10:05:18.144Z,99.60
2023-05-04T10:07:46.465Z,99.60
2023-05-04T10:10:16.797Z,99.90
2023-05-04T10:15:17.368Z,97.00
2023-05-04T10:17:59.050Z,96.50
2023-05-04T10:20:46.023Z,96.10
2023-05-04T10:23:46.890Z,99.90
2023-05-04T10:26:39.210Z,94.30
2023-05-04T10:29:14.444Z,94.90
2023-05-04T10:31:43.425Z,99.70
2023-05-04T10:34:11.844Z,93.70
2023-05-04T10:36:40.583Z,92.40
2023-05-04T10:39:20.179Z,97.70
2023-05-04T10:42:00.170Z,95.80
2023-05-04T10:44:29.007Z,87.90
2023-05-04T10:47:04.226Z,94.50
2023-05-04T10:49:32.726Z,94.70
2023-05-04T10:52:11.795Z,93.80
2023-05-04T10:54:40.921Z,83.50
2023-05-04T10:57:11.003Z,92.80
2023-05-04T10:59:39.476Z,93.40
2023-05-04T11:02:09.218Z,93.50
2023-05-04T11:07:08.327Z,82.70
2023-05-04T11:09:38.004Z,78.60
2023-05-04T11:12:06.424Z,79.20
2023-05-04T11:14:37.857Z,78.20
2023-05-04T11:17:23.909Z,90.50
2023-05-04T11:19:55.641Z,91.20
2023-05-04T11:22:23.488Z,77.70
2023-05-04T11:24:51.316Z,74.70
2023-05-04T11:27:23.686Z,73.90
2023-05-04T11:29:58.868Z,87.70
2023-05-04T11:32:37.160Z,79.30
2023-05-04T11:35:06.594Z,77.60
2023-05-04T11:37:40.315Z,89.50
2023-05-04T11:40:13.401Z,79.20
2023-05-04T11:42:42.688Z,86.30
2023-05-04T11:45:15.711Z,72.10
2023-05-04T11:47:44.531Z,72.10
2023-05-04T11:50:14.000Z,72.30
2023-05-04T11:52:42.433Z,73.70
2023-05-04T11:55:11.660Z,74.60
2023-05-04T11:57:40.265Z,86.80
2023-05-04T12:00:09.874Z,72.00
2023-05-04T12:02:39.347Z,71.00
2023-05-04T12:05:14.144Z,71.10
2023-05-04T12:07:42.110Z,82.20
2023-05-04T12:10:10.487Z,70.70
2023-05-04T12:12:38.282Z,71.80
2023-05-04T12:15:06.981Z,69.90
2023-05-04T12:17:43.554Z,69.40
2023-05-04T12:20:12.345Z,80.60
2023-05-04T12:22:40.610Z,81.00
2023-05-04T12:25:11.141Z,69.50
2023-05-04T12:27:42.618Z,80.00
2023-05-04T12:30:11.772Z,67.10
2023-05-04T12:32:39.768Z,79.80
2023-05-04T12:35:09.931Z,64.30
2023-05-04T12:37:37.942Z,75.60
2023-05-04T12:40:21.213Z,74.20
2023-05-04T12:43:05.534Z,63.60
2023-05-04T12:45:33.668Z,64.40
2023-05-04T12:48:01.604Z,75.10
2023-05-04T12:50:30.800Z,75.50
2023-05-04T12:53:04.010Z,64.60
2023-05-04T12:55:32.253Z,64.30
2023-05-04T12:58:00.058Z,76.30
2023-05-04T13:00:27.970Z,77.30
2023-05-04T13:02:55.769Z,73.90
2023-05-04T13:05:23.750Z,64.70
2023-05-04T13:07:53.144Z,77.40
2023-05-04T13:10:21.415Z,63.90
2023-05-04T13:12:49.666Z,66.00
2023-05-04T13:15:17.647Z,67.60
2023-05-04T13:17:45.431Z,78.50
2023-05-04T13:20:14.155Z,78.20
2023-05-04T13:22:42.324Z,77.20
2023-05-04T13:25:11.674Z,65.80
2023-05-04T13:27:39.439Z,74.70
2023-05-04T13:30:08.949Z,64.30
2023-05-04T13:32:36.764Z,76.10
2023-05-04T13:35:05.144Z,63.90
2023-05-04T13:37:33.832Z,64.50
2023-05-04T13:40:01.810Z,64.10
2023-05-04T13:42:31.020Z,64.30
2023-05-04T13:44:58.809Z,64.40
2023-05-04T13:49:55.136Z,63.20
2023-05-04T13:52:23.021Z,73.10
2023-05-04T13:54:50.800Z,66.60
2023-05-04T13:57:18.552Z,75.50
2023-05-04T14:02:33.866Z,62.70
2023-05-04T14:05:02.687Z,63.40
2023-05-04T14:07:30.974Z,89.30
2023-05-04T14:10:00.217Z,76.40
2023-05-04T14:12:28.802Z,75.60
2023-05-04T14:14:59.066Z,63.10
2023-05-04T14:17:27.997Z,61.50
2023-05-04T14:22:24.376Z,62.70
2023-05-04T14:24:52.286Z,61.80
2023-05-04T14:27:21.003Z,61.20
2023-05-04T14:29:49.049Z,74.60
2023-05-04T14:32:19.447Z,64.40
2023-05-04T14:34:47.679Z,62.10
2023-05-04T14:37:15.600Z,64.50
2023-05-04T14:39:44.583Z,61.50
2023-05-04T14:42:12.533Z,63.80
2023-05-04T14:44:40.350Z,62.70
2023-05-04T14:47:08.280Z,88.40
2023-05-04T14:49:43.019Z,76.00
2023-05-04T14:52:11.187Z,73.20
2023-05-04T14:54:39.091Z,63.70
2023-05-04T14:57:09.149Z,60.80
2023-05-04T14:59:37.839Z,57.10
2023-05-04T15:02:08.253Z,68.60
2023-05-04T15:09:34.960Z,57.50
2023-05-04T15:12:04.778Z,55.00
2023-05-04T15:14:32.925Z,54.10
2023-05-04T15:17:02.271Z,55.70
2023-05-04T15:19:30.100Z,53.30
2023-05-04T15:21:59.332Z,53.20
2023-05-04T15:24:27.606Z,56.40
2023-05-04T15:26:55.453Z,54.80
2023-05-04T15:29:23.664Z,64.70
2023-05-04T15:31:51.829Z,54.30
2023-05-04T15:34:19.728Z,51.60
2023-05-04T15:36:47.720Z,62.20
2023-05-04T15:39:17.125Z,50.10
2023-05-04T15:41:44.914Z,62.00
2023-05-04T15:44:12.767Z,52.00
2023-05-04T15:46:41.588Z,62.20
2023-05-04T15:49:09.537Z,63.70
2023-05-04T15:51:37.407Z,50.00
2023-05-04T15:54:05.543Z,48.80
2023-05-04T15:56:35.390Z,59.20
2023-05-04T15:59:03.395Z,59.20
2023-05-04T16:01:32.120Z,48.90
2023-05-04T16:04:00.523Z,47.60
2023-05-04T16:06:28.497Z,48.30
2023-05-04T16:08:58.612Z,50.50
2023-05-04T16:11:26.488Z,59.10
2023-05-04T16:13:55.729Z,48.70
2023-05-04T16:16:25.332Z,44.60
2023-05-04T16:18:53.809Z,44.80
2023-05-04T16:21:21.581Z,57.20
2023-05-04T16:23:49.448Z,44.30
2023-05-04T16:26:20.799Z,46.30
2023-05-04T16:28:56.649Z,42.10
2023-05-04T16:31:24.618Z,39.60
2023-05-04T16:33:53.270Z,39.50
2023-05-04T16:36:21.405Z,36.70
2023-05-04T16:38:49.827Z,48.90
2023-05-04T16:41:19.102Z,38.20
2023-05-04T16:43:48.909Z,33.40
2023-05-04T16:46:18.305Z,33.90
2023-05-04T16:48:46.154Z,43.40
2023-05-04T16:51:13.985Z,45.20
2023-05-04T16:58:53.227Z,30.00
2023-05-04T17:03:51.676Z,28.60
2023-05-04T17:06:19.671Z,28.60
2023-05-04T17:08:47.558Z,29.80
2023-05-04T17:13:52.076Z,29.10
2023-05-04T17:16:20.113Z,30.30
2023-05-04T17:18:49.260Z,30.60
2023-05-04T17:21:18.256Z,29.80
2023-05-04T17:23:46.086Z,28.40
2023-05-04T17:26:14.033Z,29.70
2023-05-04T17:28:42.021Z,28.80
2023-05-04T17:33:40.734Z,28.60
2023-05-04T17:36:12.061Z,33.10
2023-05-04T17:41:09.721Z,29.20
2023-05-04T17:43:37.921Z,37.40
2023-05-04T17:46:05.851Z,28.90
2023-05-04T17:48:33.675Z,27.30
2023-05-04T17:51:01.427Z,29.70
2023-05-04T17:53:30.912Z,29.10
2023-05-04T17:55:58.729Z,30.60
2023-05-04T18:03:22.838Z,27.50
2023-05-04T18:05:50.690Z,29.60
2023-05-04T18:08:18.455Z,28.40
2023-05-04T18:10:48.533Z,27.80
2023-05-04T18:13:16.434Z,25.80
2023-05-04T18:18:12.531Z,25.90
2023-05-04T18:20:40.350Z,26.00
2023-05-04T18:25:38.017Z,24.90
2023-05-04T18:28:07.565Z,25.60
2023-05-04T18:30:35.936Z,28.10
2023-05-04T18:35:32.057Z,29.10
2023-05-04T18:45:26.095Z,27.80
2023-05-04T18:57:46.994Z,32.80
2023-05-04T19:12:39.621Z,37.30
2023-05-04T19:15:08.542Z,37.20
2023-05-04T19:17:36.313Z,39.00
2023-05-04T19:20:06.448Z,40.60
2023-05-04T19:22:34.439Z,40.40
2023-05-04T19:25:03.943Z,38.60
2023-05-04T19:29:59.925Z,39.50
2023-05-04T19:34:56.396Z,47.80
2023-05-04T19:37:25.651Z,41.90
2023-05-04T19:42:22.482Z,40.50
2023-05-04T19:44:50.350Z,41.20
2023-05-04T19:47:18.282Z,40.00
2023-05-04T19:49:48.017Z,40.70
2023-05-04T19:52:16.104Z,42.20
2023-05-04T19:54:48.202Z,48.20
2023-05-04T19:57:16.082Z,38.20
2023-05-04T20:02:14.970Z,43.60
2023-05-04T20:04:42.983Z,49.90
2023-05-04T20:09:38.998Z,42.00
2023-05-04T20:12:08.140Z,42.70
2023-05-04T20:14:36.583Z,43.00
2023-05-04T20:17:04.654Z,47.40
2023-05-04T20:19:32.441Z,45.00
2023-05-04T20:22:00.267Z,43.70
2023-05-04T20:29:25.595Z,44.10
2023-05-04T20:31:53.549Z,42.90
2023-05-04T20:34:21.384Z,43.10
2023-05-04T20:36:49.723Z,44.70
2023-05-04T20:39:17.987Z,44.80
2023-05-04T20:44:13.886Z,44.90
2023-05-04T20:46:43.662Z,44.60
2023-05-04T20:49:11.482Z,45.30
2023-05-04T20:51:39.436Z,45.20
2023-05-04T20:54:07.342Z,46.40
2023-05-04T20:56:35.104Z,45.20
2023-05-04T20:59:02.916Z,48.40
2023-05-04T21:01:30.761Z,46.90
2023-05-04T21:04:00.120Z,46.70
2023-05-04T21:06:28.024Z,52.70
2023-05-04T21:08:56.859Z,51.10
2023-05-04T21:11:24.569Z,49.10
2023-05-04T21:13:52.308Z,48.80
2023-05-04T21:16:20.370Z,50.10
2023-05-04T21:18:48.409Z,53.00
2023-05-04T21:21:17.496Z,50.40
2023-05-04T21:23:45.360Z,48.20
2023-05-04T21:26:13.212Z,48.80
2023-05-04T21:28:41.051Z,49.90
2023-05-04T21:31:09.246Z,50.30
2023-05-04T21:33:37.236Z,50.70
2023-05-04T21:36:12.572Z,56.30
2023-05-04T21:38:41.780Z,56.50
2023-05-04T21:41:13.669Z,53.60
2023-05-04T21:46:11.503Z,56.40
2023-05-04T21:48:39.690Z,60.80
2023-05-04T21:51:07.610Z,58.10
2023-05-04T21:53:35.518Z,56.80
2023-05-04T21:56:08.166Z,59.10
2023-05-04T21:58:37.090Z,59.90
2023-05-04T22:01:05.629Z,63.50
2023-05-04T22:03:33.624Z,67.50
2023-05-04T22:06:01.859Z,56.30
2023-05-04T22:08:30.487Z,55.30
2023-05-04T22:10:59.015Z,54.00
2023-05-04T22:13:28.257Z,54.60
2023-05-04T22:15:56.061Z,56.10
2023-05-04T22:18:23.912Z,61.30
2023-05-04T22:20:51.879Z,57.90
2023-05-04T22:23:19.875Z,58.10
2023-05-04T22:28:16.131Z,65.30
2023-05-04T22:30:45.387Z,58.70
2023-05-04T22:38:09.501Z,58.60
2023-05-04T22:40:40.400Z,65.60
2023-05-04T22:43:08.448Z,68.80
2023-05-04T22:45:36.594Z,67.60
2023-05-04T22:48:05.751Z,79.10
2023-05-04T22:50:34.178Z,62.90
2023-05-04T22:53:02.148Z,55.60
2023-05-04T22:55:30.192Z,61.40
2023-05-04T22:58:00.326Z,67.00
2023-05-04T23:00:28.140Z,66.70
2023-05-04T23:02:56.634Z,67.90
2023-05-04T23:05:25.949Z,66.30
2023-05-04T23:07:53.819Z,66.50
2023-05-04T23:10:21.892Z,67.40
2023-05-04T23:12:49.819Z,72.30
2023-05-04T23:15:18.156Z,69.70
2023-05-04T23:17:46.086Z,69.60
2023-05-04T23:20:14.349Z,67.30
2023-05-04T23:22:43.840Z,65.90
2023-05-04T23:25:11.679Z,64.20
2023-05-04T23:27:39.848Z,62.30
2023-05-04T23:30:09.791Z,65.90
2023-05-04T23:32:37.994Z,67.30
2023-05-04T23:35:07.491Z,68.50
2023-05-04T23:37:35.308Z,67.00
2023-05-04T23:40:05.247Z,62.60
2023-05-04T23:42:33.153Z,63.70
2023-05-04T23:45:00.973Z,65.40
2023-05-04T23:47:28.774Z,66.80
2023-05-04T23:49:56.657Z,68.30
2023-05-04T23:52:24.498Z,69.00
2023-05-04T23:54:54.387Z,70.10
2023-05-04T23:57:23.511Z,69.80
2023-05-04T23:59:51.329Z,68.40
